sensor_id;sensor_type;location;lat;lon;timestamp;P1;durP1;ratioP1;P2;durP2;ratioP2
74551;SDS011;63025;55.472;38.432;2023-04-03T00:01:36;14.05;;;6.68;;
74551;SDS011;63025;55.472;38.432;2023-04-03T00:04:04;14.32;;;7.05;;
74551;SDS011;63025;55.472;38.432;2023-04-03T00:06:31;11.93;;;6.57;;
74551;SDS011;63025;55.472;38.432;2023-04-03T00:08:57;12.45;;;6.68;;
74551;SDS011;63025;55.472;38.432;2023-04-03T00:11:23;9.10;;;6.07;;
74551;SDS011;63025;55.472;38.432;2023-04-03T00:13:50;11.82;;;6.13;;
74551;SDS011;63025;55.472;38.432;2023-04-03T00:16:16;12.98;;;6.38;;
74551;SDS011;63025;55.472;38.432;2023-04-03T00:18:42;12.02;;;6.18;;
74551;SDS011;63025;55.472;38.432;2023-04-03T00:21:08;11.27;;;6.68;;
74551;SDS011;63025;55.472;38.432;2023-04-03T00:23:37;12.70;;;6.50;;
74551;SDS011;63025;55.472;38.432;2023-04-03T00:26:02;12.07;;;6.50;;
74551;SDS011;63025;55.472;38.432;2023-04-03T00:28:28;12.85;;;6.18;;
74551;SDS011;63025;55.472;38.432;2023-04-03T00:30:54;13.88;;;6.53;;
74551;SDS011;63025;55.472;38.432;2023-04-03T00:33:20;11.00;;;6.15;;
74551;SDS011;63025;55.472;38.432;2023-04-03T00:35:47;13.13;;;6.72;;
74551;SDS011;63025;55.472;38.432;2023-04-03T00:38:14;11.55;;;6.40;;
74551;SDS011;63025;55.472;38.432;2023-04-03T00:40:44;10.35;;;6.05;;
74551;SDS011;63025;55.472;38.432;2023-04-03T00:43:16;10.98;;;6.72;;
74551;SDS011;63025;55.472;38.432;2023-04-03T00:45:48;13.23;;;6.65;;
74551;SDS011;63025;55.472;38.432;2023-04-03T00:48:17;16.00;;;7.70;;
74551;SDS011;63025;55.472;38.432;2023-04-03T00:50:46;15.55;;;8.15;;
74551;SDS011;63025;55.472;38.432;2023-04-03T00:53:17;15.35;;;7.95;;
74551;SDS011;63025;55.472;38.432;2023-04-03T00:58:13;12.82;;;7.90;;
74551;SDS011;63025;55.472;38.432;2023-04-03T01:00:42;15.10;;;7.50;;
74551;SDS011;63025;55.472;38.432;2023-04-03T01:03:11;14.95;;;8.77;;
74551;SDS011;63025;55.472;38.432;2023-04-03T01:05:38;17.85;;;9.73;;
74551;SDS011;63025;55.472;38.432;2023-04-03T01:08:05;20.67;;;10.45;;
74551;SDS011;63025;55.472;38.432;2023-04-03T01:10:32;22.00;;;11.27;;
74551;SDS011;63025;55.472;38.432;2023-04-03T01:12:58;20.35;;;11.25;;
74551;SDS011;63025;55.472;38.432;2023-04-03T01:15:26;22.35;;;10.88;;
74551;SDS011;63025;55.472;38.432;2023-04-03T01:17:58;15.88;;;9.10;;
74551;SDS011;63025;55.472;38.432;2023-04-03T01:28:31;16.15;;;7.60;;
74551;SDS011;63025;55.472;38.432;2023-04-03T01:31:12;12.40;;;7.07;;
74551;SDS011;63025;55.472;38.432;2023-04-03T01:33:46;13.10;;;6.85;;
74551;SDS011;63025;55.472;38.432;2023-04-03T01:36:17;12.93;;;6.85;;
74551;SDS011;63025;55.472;38.432;2023-04-03T01:41:11;12.43;;;6.80;;
74551;SDS011;63025;55.472;38.432;2023-04-03T01:43:37;10.68;;;6.40;;
74551;SDS011;63025;55.472;38.432;2023-04-03T01:46:03;11.68;;;6.28;;
74551;SDS011;63025;55.472;38.432;2023-04-03T01:48:29;12.30;;;6.82;;
74551;SDS011;63025;55.472;38.432;2023-04-03T01:50:54;14.95;;;6.18;;
74551;SDS011;63025;55.472;38.432;2023-04-03T01:53:20;10.60;;;6.50;;
74551;SDS011;63025;55.472;38.432;2023-04-03T01:55:46;10.60;;;6.60;;
74551;SDS011;63025;55.472;38.432;2023-04-03T01:58:12;12.18;;;6.60;;
74551;SDS011;63025;55.472;38.432;2023-04-03T02:00:38;12.05;;;7.07;;
74551;SDS011;63025;55.472;38.432;2023-04-03T02:03:03;16.13;;;6.72;;
74551;SDS011;63025;55.472;38.432;2023-04-03T02:05:29;11.55;;;6.32;;
74551;SDS011;63025;55.472;38.432;2023-04-03T02:07:55;9.98;;;6.63;;
74551;SDS011;63025;55.472;38.432;2023-04-03T02:10:21;12.00;;;7.07;;
74551;SDS011;63025;55.472;38.432;2023-04-03T02:12:47;12.95;;;7.07;;
74551;SDS011;63025;55.472;38.432;2023-04-03T02:15:13;11.50;;;7.10;;
74551;SDS011;63025;55.472;38.432;2023-04-03T02:17:39;14.07;;;7.25;;
74551;SDS011;63025;55.472;38.432;2023-04-03T02:20:04;11.98;;;7.22;;
74551;SDS011;63025;55.472;38.432;2023-04-03T02:22:32;14.20;;;7.15;;
74551;SDS011;63025;55.472;38.432;2023-04-03T02:24:58;11.73;;;6.63;;
74551;SDS011;63025;55.472;38.432;2023-04-03T02:27:24;13.68;;;7.60;;
74551;SDS011;63025;55.472;38.432;2023-04-03T02:29:49;13.40;;;7.97;;
74551;SDS011;63025;55.472;38.432;2023-04-03T02:32:15;13.00;;;7.82;;
74551;SDS011;63025;55.472;38.432;2023-04-03T02:34:41;12.77;;;7.45;;
74551;SDS011;63025;55.472;38.432;2023-04-03T02:37:09;13.10;;;7.25;;
74551;SDS011;63025;55.472;38.432;2023-04-03T02:39:35;12.82;;;7.75;;
74551;SDS011;63025;55.472;38.432;2023-04-03T02:42:01;14.57;;;7.43;;
74551;SDS011;63025;55.472;38.432;2023-04-03T02:44:27;13.82;;;7.60;;
74551;SDS011;63025;55.472;38.432;2023-04-03T02:46:53;14.13;;;7.35;;
74551;SDS011;63025;55.472;38.432;2023-04-03T02:49:19;13.23;;;7.22;;
74551;SDS011;63025;55.472;38.432;2023-04-03T02:51:45;10.07;;;6.43;;
74551;SDS011;63025;55.472;38.432;2023-04-03T02:54:11;11.32;;;6.70;;
74551;SDS011;63025;55.472;38.432;2023-04-03T02:56:41;10.20;;;6.55;;
74551;SDS011;63025;55.472;38.432;2023-04-03T02:59:07;10.45;;;6.25;;
74551;SDS011;63025;55.472;38.432;2023-04-03T03:01:35;13.57;;;6.68;;
74551;SDS011;63025;55.472;38.432;2023-04-03T03:04:01;13.52;;;7.25;;
74551;SDS011;63025;55.472;38.432;2023-04-03T03:06:27;11.23;;;7.32;;
74551;SDS011;63025;55.472;38.432;2023-04-03T03:08:53;11.63;;;7.30;;
74551;SDS011;63025;55.472;38.432;2023-04-03T03:11:19;14.75;;;6.88;;
74551;SDS011;63025;55.472;38.432;2023-04-03T03:13:46;11.93;;;6.63;;
74551;SDS011;63025;55.472;38.432;2023-04-03T03:16:12;13.65;;;7.25;;
74551;SDS011;63025;55.472;38.432;2023-04-03T03:18:37;11.02;;;6.82;;
74551;SDS011;63025;55.472;38.432;2023-04-03T03:21:04;12.05;;;6.97;;
74551;SDS011;63025;55.472;38.432;2023-04-03T03:23:31;11.65;;;7.13;;
74551;SDS011;63025;55.472;38.432;2023-04-03T03:26:07;11.07;;;6.85;;
74551;SDS011;63025;55.472;38.432;2023-04-03T03:28:35;10.82;;;7.05;;
74551;SDS011;63025;55.472;38.432;2023-04-03T03:31:03;11.13;;;6.80;;
74551;SDS011;63025;55.472;38.432;2023-04-03T03:33:31;11.38;;;6.80;;
74551;SDS011;63025;55.472;38.432;2023-04-03T03:35:57;12.82;;;6.95;;
74551;SDS011;63025;55.472;38.432;2023-04-03T03:38:22;12.65;;;6.93;;
74551;SDS011;63025;55.472;38.432;2023-04-03T03:40:49;11.50;;;6.50;;
74551;SDS011;63025;55.472;38.432;2023-04-03T03:43:17;12.15;;;6.25;;
74551;SDS011;63025;55.472;38.432;2023-04-03T03:45:46;12.48;;;7.50;;
74551;SDS011;63025;55.472;38.432;2023-04-03T03:48:15;10.98;;;6.47;;
74551;SDS011;63025;55.472;38.432;2023-04-03T03:50:41;12.10;;;6.75;;
74551;SDS011;63025;55.472;38.432;2023-04-03T03:53:07;10.63;;;6.28;;
74551;SDS011;63025;55.472;38.432;2023-04-03T03:55:33;9.88;;;6.45;;
74551;SDS011;63025;55.472;38.432;2023-04-03T03:57:59;10.68;;;6.05;;
74551;SDS011;63025;55.472;38.432;2023-04-03T04:00:28;10.18;;;6.15;;
74551;SDS011;63025;55.472;38.432;2023-04-03T04:02:56;12.27;;;6.43;;
74551;SDS011;63025;55.472;38.432;2023-04-03T04:05:22;10.52;;;6.30;;
74551;SDS011;63025;55.472;38.432;2023-04-03T04:07:48;9.95;;;6.43;;
74551;SDS011;63025;55.472;38.432;2023-04-03T04:10:15;10.23;;;6.35;;
74551;SDS011;63025;55.472;38.432;2023-04-03T04:12:43;10.77;;;6.85;;
74551;SDS011;63025;55.472;38.432;2023-04-03T04:15:09;12.63;;;7.07;;
74551;SDS011;63025;55.472;38.432;2023-04-03T04:17:35;10.93;;;7.07;;
74551;SDS011;63025;55.472;38.432;2023-04-03T04:20:03;10.88;;;6.47;;
74551;SDS011;63025;55.472;38.432;2023-04-03T04:22:31;10.95;;;6.80;;
74551;SDS011;63025;55.472;38.432;2023-04-03T04:24:57;10.93;;;6.70;;
74551;SDS011;63025;55.472;38.432;2023-04-03T04:27:22;11.13;;;6.88;;
74551;SDS011;63025;55.472;38.432;2023-04-03T04:29:48;10.95;;;7.10;;
74551;SDS011;63025;55.472;38.432;2023-04-03T04:32:15;10.75;;;6.65;;
74551;SDS011;63025;55.472;38.432;2023-04-03T04:34:41;13.02;;;6.70;;
74551;SDS011;63025;55.472;38.432;2023-04-03T04:37:07;11.35;;;6.70;;
74551;SDS011;63025;55.472;38.432;2023-04-03T04:39:33;9.90;;;6.38;;
74551;SDS011;63025;55.472;38.432;2023-04-03T04:41:59;9.38;;;6.25;;
74551;SDS011;63025;55.472;38.432;2023-04-03T04:44:28;10.90;;;6.30;;
74551;SDS011;63025;55.472;38.432;2023-04-03T04:46:54;10.02;;;6.35;;
74551;SDS011;63025;55.472;38.432;2023-04-03T04:49:20;10.23;;;5.70;;
74551;SDS011;63025;55.472;38.432;2023-04-03T04:51:46;9.98;;;6.53;;
74551;SDS011;63025;55.472;38.432;2023-04-03T04:54:13;10.75;;;6.68;;
74551;SDS011;63025;55.472;38.432;2023-04-03T04:56:39;9.50;;;6.30;;
74551;SDS011;63025;55.472;38.432;2023-04-03T04:59:06;9.95;;;6.38;;
74551;SDS011;63025;55.472;38.432;2023-04-03T05:01:32;11.32;;;6.70;;
74551;SDS011;63025;55.472;38.432;2023-04-03T05:04:03;9.60;;;6.55;;
74551;SDS011;63025;55.472;38.432;2023-04-03T05:06:30;9.95;;;6.20;;
74551;SDS011;63025;55.472;38.432;2023-04-03T05:08:58;11.50;;;7.07;;
74551;SDS011;63025;55.472;38.432;2023-04-03T05:11:24;13.32;;;6.15;;
74551;SDS011;63025;55.472;38.432;2023-04-03T05:13:52;9.95;;;6.13;;
74551;SDS011;63025;55.472;38.432;2023-04-03T05:16:19;12.68;;;6.40;;
74551;SDS011;63025;55.472;38.432;2023-04-03T05:18:45;10.23;;;5.70;;
74551;SDS011;63025;55.472;38.432;2023-04-03T05:21:32;12.50;;;6.20;;
74551;SDS011;63025;55.472;38.432;2023-04-03T05:24:01;11.60;;;6.30;;
74551;SDS011;63025;55.472;38.432;2023-04-03T05:26:29;9.23;;;5.80;;
74551;SDS011;63025;55.472;38.432;2023-04-03T05:28:57;13.60;;;6.60;;
74551;SDS011;63025;55.472;38.432;2023-04-03T05:31:23;11.48;;;6.60;;
74551;SDS011;63025;55.472;38.432;2023-04-03T05:33:50;11.65;;;5.97;;
74551;SDS011;63025;55.472;38.432;2023-04-03T05:36:17;11.57;;;5.97;;
74551;SDS011;63025;55.472;38.432;2023-04-03T05:38:46;12.63;;;6.75;;
74551;SDS011;63025;55.472;38.432;2023-04-03T05:41:13;10.25;;;6.32;;
74551;SDS011;63025;55.472;38.432;2023-04-03T05:43:41;9.82;;;6.32;;
74551;SDS011;63025;55.472;38.432;2023-04-03T05:46:12;10.88;;;6.47;;
74551;SDS011;63025;55.472;38.432;2023-04-03T05:48:45;13.70;;;6.20;;
74551;SDS011;63025;55.472;38.432;2023-04-03T05:51:18;12.50;;;6.80;;
74551;SDS011;63025;55.472;38.432;2023-04-03T05:53:50;12.65;;;6.40;;
74551;SDS011;63025;55.472;38.432;2023-04-03T05:56:20;11.15;;;6.20;;
74551;SDS011;63025;55.472;38.432;2023-04-03T05:58:46;9.52;;;5.88;;
74551;SDS011;63025;55.472;38.432;2023-04-03T06:01:12;12.70;;;6.60;;
74551;SDS011;63025;55.472;38.432;2023-04-03T06:03:38;10.73;;;6.10;;
74551;SDS011;63025;55.472;38.432;2023-04-03T06:06:05;9.80;;;6.25;;
74551;SDS011;63025;55.472;38.432;2023-04-03T06:08:31;13.25;;;6.25;;
74551;SDS011;63025;55.472;38.432;2023-04-03T06:10:58;13.70;;;6.47;;
74551;SDS011;63025;55.472;38.432;2023-04-03T06:13:23;13.13;;;6.57;;
74551;SDS011;63025;55.472;38.432;2023-04-03T06:15:50;11.80;;;6.63;;
74551;SDS011;63025;55.472;38.432;2023-04-03T06:18:16;11.50;;;6.63;;
74551;SDS011;63025;55.472;38.432;2023-04-03T06:20:41;11.43;;;6.57;;
74551;SDS011;63025;55.472;38.432;2023-04-03T06:23:09;15.80;;;6.72;;
74551;SDS011;63025;55.472;38.432;2023-04-03T06:25:35;11.57;;;7.13;;
74551;SDS011;63025;55.472;38.432;2023-04-03T06:28:01;11.98;;;6.63;;
74551;SDS011;63025;55.472;38.432;2023-04-03T06:30:27;11.13;;;6.43;;
74551;SDS011;63025;55.472;38.432;2023-04-03T06:32:52;13.63;;;6.68;;
74551;SDS011;63025;55.472;38.432;2023-04-03T06:35:18;13.02;;;7.10;;
74551;SDS011;63025;55.472;38.432;2023-04-03T06:37:44;17.00;;;6.82;;
74551;SDS011;63025;55.472;38.432;2023-04-03T06:40:15;11.98;;;6.60;;
74551;SDS011;63025;55.472;38.432;2023-04-03T06:42:45;10.73;;;6.50;;
74551;SDS011;63025;55.472;38.432;2023-04-03T06:45:11;12.43;;;6.97;;
74551;SDS011;63025;55.472;38.432;2023-04-03T06:47:37;12.15;;;6.88;;
74551;SDS011;63025;55.472;38.432;2023-04-03T06:50:03;11.43;;;6.57;;
74551;SDS011;63025;55.472;38.432;2023-04-03T06:52:30;10.85;;;7.00;;
74551;SDS011;63025;55.472;38.432;2023-04-03T06:54:56;11.95;;;6.53;;
74551;SDS011;63025;55.472;38.432;2023-04-03T06:57:24;17.13;;;7.78;;
74551;SDS011;63025;55.472;38.432;2023-04-03T06:59:50;14.07;;;7.10;;
74551;SDS011;63025;55.472;38.432;2023-04-03T07:02:16;10.35;;;6.88;;
74551;SDS011;63025;55.472;38.432;2023-04-03T07:04:42;16.67;;;7.13;;
74551;SDS011;63025;55.472;38.432;2023-04-03T07:07:08;12.57;;;6.80;;
74551;SDS011;63025;55.472;38.432;2023-04-03T07:09:34;11.00;;;7.25;;
74551;SDS011;63025;55.472;38.432;2023-04-03T07:12:00;15.13;;;7.28;;
74551;SDS011;63025;55.472;38.432;2023-04-03T07:14:25;14.15;;;7.25;;
74551;SDS011;63025;55.472;38.432;2023-04-03T07:16:51;16.75;;;7.38;;
74551;SDS011;63025;55.472;38.432;2023-04-03T07:19:17;10.52;;;7.03;;
74551;SDS011;63025;55.472;38.432;2023-04-03T07:21:44;13.80;;;6.90;;
74551;SDS011;63025;55.472;38.432;2023-04-03T07:24:10;12.25;;;7.30;;
74551;SDS011;63025;55.472;38.432;2023-04-03T07:26:36;12.07;;;7.50;;
74551;SDS011;63025;55.472;38.432;2023-04-03T07:29:02;10.00;;;7.22;;
74551;SDS011;63025;55.472;38.432;2023-04-03T07:31:27;13.65;;;7.45;;
74551;SDS011;63025;55.472;38.432;2023-04-03T07:33:53;13.05;;;7.38;;
74551;SDS011;63025;55.472;38.432;2023-04-03T07:36:20;14.32;;;7.95;;
74551;SDS011;63025;55.472;38.432;2023-04-03T07:38:47;14.15;;;8.02;;
74551;SDS011;63025;55.472;38.432;2023-04-03T07:41:14;11.57;;;8.13;;
74551;SDS011;63025;55.472;38.432;2023-04-03T07:43:43;15.30;;;8.65;;
74551;SDS011;63025;55.472;38.432;2023-04-03T07:46:09;16.60;;;8.50;;
74551;SDS011;63025;55.472;38.432;2023-04-03T07:48:36;13.43;;;7.80;;
74551;SDS011;63025;55.472;38.432;2023-04-03T07:51:02;14.15;;;8.13;;
74551;SDS011;63025;55.472;38.432;2023-04-03T07:53:29;13.65;;;7.82;;
74551;SDS011;63025;55.472;38.432;2023-04-03T07:55:56;12.65;;;7.68;;
74551;SDS011;63025;55.472;38.432;2023-04-03T07:58:22;15.70;;;7.93;;
74551;SDS011;63025;55.472;38.432;2023-04-03T08:00:48;11.82;;;7.38;;
74551;SDS011;63025;55.472;38.432;2023-04-03T08:03:14;14.18;;;7.05;;
74551;SDS011;63025;55.472;38.432;2023-04-03T08:05:45;11.48;;;7.55;;
74551;SDS011;63025;55.472;38.432;2023-04-03T08:08:12;12.60;;;7.47;;
74551;SDS011;63025;55.472;38.432;2023-04-03T08:10:40;12.65;;;8.07;;
74551;SDS011;63025;55.472;38.432;2023-04-03T08:13:06;11.40;;;7.15;;
74551;SDS011;63025;55.472;38.432;2023-04-03T08:15:37;13.88;;;7.68;;
74551;SDS011;63025;55.472;38.432;2023-04-03T08:18:02;10.85;;;7.90;;
74551;SDS011;63025;55.472;38.432;2023-04-03T08:20:29;12.25;;;7.47;;
74551;SDS011;63025;55.472;38.432;2023-04-03T08:22:54;15.05;;;7.90;;
74551;SDS011;63025;55.472;38.432;2023-04-03T08:25:20;12.15;;;7.65;;
74551;SDS011;63025;55.472;38.432;2023-04-03T08:27:46;14.68;;;7.63;;
74551;SDS011;63025;55.472;38.432;2023-04-03T08:30:12;11.23;;;7.45;;
74551;SDS011;63025;55.472;38.432;2023-04-03T08:32:38;13.63;;;8.07;;
74551;SDS011;63025;55.472;38.432;2023-04-03T08:35:05;10.85;;;7.22;;
74551;SDS011;63025;55.472;38.432;2023-04-03T08:37:31;11.23;;;7.22;;
74551;SDS011;63025;55.472;38.432;2023-04-03T08:39:57;12.18;;;7.45;;
74551;SDS011;63025;55.472;38.432;2023-04-03T08:45:14;10.63;;;6.65;;
74551;SDS011;63025;55.472;38.432;2023-04-03T08:48:06;12.25;;;6.45;;
74551;SDS011;63025;55.472;38.432;2023-04-03T08:50:40;11.00;;;6.70;;
74551;SDS011;63025;55.472;38.432;2023-04-03T08:53:16;10.10;;;6.50;;
74551;SDS011;63025;55.472;38.432;2023-04-03T08:55:47;10.77;;;6.45;;
74551;SDS011;63025;55.472;38.432;2023-04-03T08:58:26;14.38;;;6.50;;
74551;SDS011;63025;55.472;38.432;2023-04-03T09:01:16;11.30;;;6.40;;
74551;SDS011;63025;55.472;38.432;2023-04-03T09:03:50;10.35;;;5.32;;
74551;SDS011;63025;55.472;38.432;2023-04-03T09:06:18;8.77;;;5.47;;
74551;SDS011;63025;55.472;38.432;2023-04-03T09:09:04;13.88;;;6.60;;
74551;SDS011;63025;55.472;38.432;2023-04-03T09:14:02;11.57;;;6.30;;
74551;SDS011;63025;55.472;38.432;2023-04-03T09:21:45;12.25;;;5.97;;
74551;SDS011;63025;55.472;38.432;2023-04-03T09:24:12;10.35;;;5.35;;
74551;SDS011;63025;55.472;38.432;2023-04-03T09:26:45;9.80;;;5.38;;
74551;SDS011;63025;55.472;38.432;2023-04-03T09:29:19;10.20;;;5.30;;
74551;SDS011;63025;55.472;38.432;2023-04-03T09:31:49;8.48;;;4.97;;
74551;SDS011;63025;55.472;38.432;2023-04-03T09:34:22;11.90;;;5.43;;
74551;SDS011;63025;55.472;38.432;2023-04-03T09:36:53;10.88;;;5.22;;
74551;SDS011;63025;55.472;38.432;2023-04-03T09:39:22;10.88;;;5.22;;
74551;SDS011;63025;55.472;38.432;2023-04-03T09:41:56;9.73;;;5.45;;
74551;SDS011;63025;55.472;38.432;2023-04-03T09:44:35;11.27;;;6.20;;
74551;SDS011;63025;55.472;38.432;2023-04-03T09:49:48;13.40;;;5.38;;
74551;SDS011;63025;55.472;38.432;2023-04-03T09:52:22;12.05;;;5.75;;
74551;SDS011;63025;55.472;38.432;2023-04-03T09:54:50;12.65;;;6.18;;
74551;SDS011;63025;55.472;38.432;2023-04-03T09:57:16;10.35;;;5.80;;
74551;SDS011;63025;55.472;38.432;2023-04-03T09:59:58;12.35;;;6.13;;
74551;SDS011;63025;55.472;38.432;2023-04-03T10:02:34;12.80;;;6.03;;
74551;SDS011;63025;55.472;38.432;2023-04-03T10:05:03;13.75;;;5.82;;
74551;SDS011;63025;55.472;38.432;2023-04-03T10:07:31;11.52;;;5.93;;
74551;SDS011;63025;55.472;38.432;2023-04-03T10:12:40;9.95;;;5.55;;
74551;SDS011;63025;55.472;38.432;2023-04-03T10:15:12;9.55;;;5.63;;
74551;SDS011;63025;55.472;38.432;2023-04-03T10:20:39;14.48;;;6.03;;
74551;SDS011;63025;55.472;38.432;2023-04-03T10:34:37;11.52;;;5.22;;
74551;SDS011;63025;55.472;38.432;2023-04-03T10:40:29;11.75;;;5.28;;
74551;SDS011;63025;55.472;38.432;2023-04-03T10:48:11;11.40;;;5.30;;
74551;SDS011;63025;55.472;38.432;2023-04-03T10:53:37;11.23;;;5.32;;
74551;SDS011;63025;55.472;38.432;2023-04-03T10:56:14;11.07;;;5.22;;
74551;SDS011;63025;55.472;38.432;2023-04-03T10:58:48;8.70;;;4.85;;
74551;SDS011;63025;55.472;38.432;2023-04-03T11:01:21;8.70;;;4.80;;
74551;SDS011;63025;55.472;38.432;2023-04-03T11:03:54;7.88;;;4.40;;
74551;SDS011;63025;55.472;38.432;2023-04-03T11:06:24;7.28;;;4.22;;
74551;SDS011;63025;55.472;38.432;2023-04-03T11:08:57;7.13;;;3.75;;
74551;SDS011;63025;55.472;38.432;2023-04-03T11:11:33;5.53;;;3.45;;
74551;SDS011;63025;55.472;38.432;2023-04-03T11:14:05;5.47;;;3.67;;
74551;SDS011;63025;55.472;38.432;2023-04-03T11:16:42;6.90;;;3.50;;
74551;SDS011;63025;55.472;38.432;2023-04-03T11:19:19;5.95;;;4.00;;
74551;SDS011;63025;55.472;38.432;2023-04-03T11:22:03;7.28;;;3.90;;
74551;SDS011;63025;55.472;38.432;2023-04-03T11:36:09;10.23;;;4.20;;
74551;SDS011;63025;55.472;38.432;2023-04-03T11:38:43;8.98;;;3.80;;
74551;SDS011;63025;55.472;38.432;2023-04-03T11:41:12;7.75;;;3.90;;
74551;SDS011;63025;55.472;38.432;2023-04-03T11:43:55;6.93;;;4.00;;
74551;SDS011;63025;55.472;38.432;2023-04-03T11:46:22;6.80;;;3.80;;
74551;SDS011;63025;55.472;38.432;2023-04-03T11:48:48;6.30;;;3.47;;
74551;SDS011;63025;55.472;38.432;2023-04-03T11:53:54;5.85;;;3.20;;
74551;SDS011;63025;55.472;38.432;2023-04-03T12:01:49;9.13;;;3.50;;
74551;SDS011;63025;55.472;38.432;2023-04-03T12:04:16;7.07;;;3.75;;
74551;SDS011;63025;55.472;38.432;2023-04-03T12:09:26;5.32;;;3.50;;
74551;SDS011;63025;55.472;38.432;2023-04-03T12:11:59;7.57;;;4.10;;
74551;SDS011;63025;55.472;38.432;2023-04-03T12:14:45;8.65;;;3.97;;
74551;SDS011;63025;55.472;38.432;2023-04-03T12:17:18;7.82;;;3.92;;
74551;SDS011;63025;55.472;38.432;2023-04-03T12:19:48;7.90;;;4.35;;
74551;SDS011;63025;55.472;38.432;2023-04-03T12:22:15;6.55;;;4.38;;
74551;SDS011;63025;55.472;38.432;2023-04-03T12:24:45;10.13;;;4.40;;
74551;SDS011;63025;55.472;38.432;2023-04-03T12:35:39;7.53;;;5.28;;
74551;SDS011;63025;55.472;38.432;2023-04-03T12:38:26;7.15;;;5.20;;
74551;SDS011;63025;55.472;38.432;2023-04-03T12:41:14;9.88;;;5.25;;
74551;SDS011;63025;55.472;38.432;2023-04-03T12:46:38;8.23;;;5.38;;
74551;SDS011;63025;55.472;38.432;2023-04-03T12:49:53;9.57;;;4.55;;
74551;SDS011;63025;55.472;38.432;2023-04-03T12:52:41;6.63;;;3.97;;
74551;SDS011;63025;55.472;38.432;2023-04-03T12:55:08;8.40;;;4.20;;
74551;SDS011;63025;55.472;38.432;2023-04-03T12:57:40;9.15;;;4.10;;
74551;SDS011;63025;55.472;38.432;2023-04-03T13:00:18;8.57;;;4.57;;
74551;SDS011;63025;55.472;38.432;2023-04-03T13:02:53;6.60;;;4.60;;
74551;SDS011;63025;55.472;38.432;2023-04-03T13:05:19;5.70;;;4.00;;
74551;SDS011;63025;55.472;38.432;2023-04-03T13:08:07;7.00;;;3.55;;
74551;SDS011;63025;55.472;38.432;2023-04-03T13:10:43;7.25;;;3.80;;
74551;SDS011;63025;55.472;38.432;2023-04-03T13:13:16;5.55;;;3.88;;
74551;SDS011;63025;55.472;38.432;2023-04-03T13:15:43;7.20;;;3.53;;
74551;SDS011;63025;55.472;38.432;2023-04-03T13:20:49;7.50;;;3.63;;
74551;SDS011;63025;55.472;38.432;2023-04-03T13:23:16;6.28;;;3.40;;
74551;SDS011;63025;55.472;38.432;2023-04-03T13:25:46;7.95;;;3.65;;
74551;SDS011;63025;55.472;38.432;2023-04-03T13:28:15;7.18;;;3.60;;
74551;SDS011;63025;55.472;38.432;2023-04-03T13:31:02;7.45;;;3.25;;
74551;SDS011;63025;55.472;38.432;2023-04-03T13:33:33;5.05;;;3.20;;
74551;SDS011;63025;55.472;38.432;2023-04-03T13:36:25;8.27;;;3.20;;
74551;SDS011;63025;55.472;38.432;2023-04-03T13:41:37;5.32;;;3.22;;
74551;SDS011;63025;55.472;38.432;2023-04-03T13:46:56;6.05;;;3.17;;
74551;SDS011;63025;55.472;38.432;2023-04-03T13:49:45;5.90;;;3.28;;
74551;SDS011;63025;55.472;38.432;2023-04-03T13:52:27;5.90;;;2.80;;
74551;SDS011;63025;55.472;38.432;2023-04-03T13:57:50;5.32;;;3.15;;
74551;SDS011;63025;55.472;38.432;2023-04-03T14:00:28;5.43;;;2.78;;
74551;SDS011;63025;55.472;38.432;2023-04-03T14:03:58;4.47;;;2.70;;
74551;SDS011;63025;55.472;38.432;2023-04-03T14:06:08;7.20;;;3.30;;
74551;SDS011;63025;55.472;38.432;2023-04-03T14:08:36;7.13;;;3.38;;
74551;SDS011;63025;55.472;38.432;2023-04-03T14:11:02;5.47;;;3.00;;
74551;SDS011;63025;55.472;38.432;2023-04-03T14:13:31;4.85;;;2.90;;
74551;SDS011;63025;55.472;38.432;2023-04-03T14:15:57;5.25;;;2.97;;
74551;SDS011;63025;55.472;38.432;2023-04-03T14:18:23;5.03;;;3.05;;
74551;SDS011;63025;55.472;38.432;2023-04-03T14:20:49;8.25;;;3.00;;
74551;SDS011;63025;55.472;38.432;2023-04-03T14:23:15;4.50;;;2.97;;
74551;SDS011;63025;55.472;38.432;2023-04-03T14:25:41;6.03;;;3.00;;
74551;SDS011;63025;55.472;38.432;2023-04-03T14:28:15;8.15;;;3.10;;
74551;SDS011;63025;55.472;38.432;2023-04-03T14:30:44;5.38;;;3.50;;
74551;SDS011;63025;55.472;38.432;2023-04-03T14:33:13;8.10;;;3.22;;
74551;SDS011;63025;55.472;38.432;2023-04-03T14:35:41;4.40;;;3.00;;
74551;SDS011;63025;55.472;38.432;2023-04-03T14:38:21;6.97;;;3.20;;
74551;SDS011;63025;55.472;38.432;2023-04-03T14:40:52;7.07;;;3.30;;
74551;SDS011;63025;55.472;38.432;2023-04-03T14:43:18;5.63;;;3.45;;
74551;SDS011;63025;55.472;38.432;2023-04-03T14:45:45;6.47;;;3.15;;
74551;SDS011;63025;55.472;38.432;2023-04-03T14:48:17;6.85;;;3.33;;
74551;SDS011;63025;55.472;38.432;2023-04-03T14:50:48;6.43;;;2.85;;
74551;SDS011;63025;55.472;38.432;2023-04-03T14:53:15;7.25;;;3.17;;
74551;SDS011;63025;55.472;38.432;2023-04-03T14:55:43;7.53;;;3.10;;
74551;SDS011;63025;55.472;38.432;2023-04-03T14:58:14;6.55;;;3.10;;
74551;SDS011;63025;55.472;38.432;2023-04-03T15:00:42;8.48;;;3.42;;
74551;SDS011;63025;55.472;38.432;2023-04-03T15:03:19;9.40;;;3.70;;
74551;SDS011;63025;55.472;38.432;2023-04-03T15:05:47;6.85;;;3.05;;
74551;SDS011;63025;55.472;38.432;2023-04-03T15:08:19;6.68;;;2.85;;
74551;SDS011;63025;55.472;38.432;2023-04-03T15:10:48;8.27;;;3.80;;
74551;SDS011;63025;55.472;38.432;2023-04-03T15:13:14;6.20;;;3.20;;
74551;SDS011;63025;55.472;38.432;2023-04-03T15:15:40;6.10;;;3.20;;
74551;SDS011;63025;55.472;38.432;2023-04-03T15:18:07;7.00;;;3.60;;
74551;SDS011;63025;55.472;38.432;2023-04-03T15:20:39;8.43;;;3.50;;
74551;SDS011;63025;55.472;38.432;2023-04-03T15:23:05;6.53;;;3.50;;
74551;SDS011;63025;55.472;38.432;2023-04-03T15:25:31;7.72;;;3.13;;
74551;SDS011;63025;55.472;38.432;2023-04-03T15:27:58;6.28;;;3.10;;
74551;SDS011;63025;55.472;38.432;2023-04-03T15:30:25;6.35;;;3.70;;
74551;SDS011;63025;55.472;38.432;2023-04-03T15:32:50;5.85;;;3.10;;
74551;SDS011;63025;55.472;38.432;2023-04-03T15:35:16;6.38;;;3.28;;
74551;SDS011;63025;55.472;38.432;2023-04-03T15:37:42;6.57;;;3.28;;
74551;SDS011;63025;55.472;38.432;2023-04-03T15:40:08;8.05;;;3.58;;
74551;SDS011;63025;55.472;38.432;2023-04-03T15:42:34;6.28;;;3.40;;
74551;SDS011;63025;55.472;38.432;2023-04-03T15:45:00;5.13;;;3.10;;
74551;SDS011;63025;55.472;38.432;2023-04-03T15:47:26;8.57;;;3.30;;
74551;SDS011;63025;55.472;38.432;2023-04-03T15:49:53;6.30;;;3.20;;
74551;SDS011;63025;55.472;38.432;2023-04-03T15:52:20;6.85;;;3.38;;
74551;SDS011;63025;55.472;38.432;2023-04-03T15:54:46;7.13;;;3.50;;
74551;SDS011;63025;55.472;38.432;2023-04-03T15:57:11;6.63;;;3.85;;
74551;SDS011;63025;55.472;38.432;2023-04-03T15:59:37;5.55;;;3.33;;
74551;SDS011;63025;55.472;38.432;2023-04-03T16:02:03;6.45;;;3.60;;
74551;SDS011;63025;55.472;38.432;2023-04-03T16:04:33;6.68;;;3.25;;
74551;SDS011;63025;55.472;38.432;2023-04-03T16:07:03;5.93;;;3.22;;
74551;SDS011;63025;55.472;38.432;2023-04-03T16:09:30;9.25;;;3.72;;
74551;SDS011;63025;55.472;38.432;2023-04-03T16:11:57;5.47;;;3.53;;
74551;SDS011;63025;55.472;38.432;2023-04-03T16:14:22;4.93;;;3.17;;
74551;SDS011;63025;55.472;38.432;2023-04-03T16:16:48;6.03;;;3.63;;